Terminal Aerodrome Forecast
Issued by NWS

Home | Current Version | Previous Version | Text Only | Print | Product List | Glossary On
Versions: 1 2 3 4 5 6 7 8 9 10 11 12 13 14 15 16 17 18 19
000
FTUS43 KICT 241355 AAA
TAFCNU
TAF AMD
KCNU 241355Z 2414/2512 VRB06KT P6SM VCTS SCT015 BKN035CB
      TEMPO 2414/2418 01012G20KT 4SM TSRA OVC015CB
     FM241900 17016G23KT P6SM BKN035=

USA.gov is the U.S. government's official web portal to all federal, state and local government web resources and services.